createdAt,value
2022-10-17T00:04:25.275Z,102508.28
2022-10-17T00:09:24.041Z,102518.06
2022-10-17T00:14:22.797Z,102511.16
2022-10-17T00:19:22.993Z,102514.00
2022-10-17T00:24:21.780Z,102519.25
2022-10-17T00:29:20.510Z,102512.50
2022-10-17T00:34:20.003Z,102518.88
2022-10-17T00:39:20.856Z,102519.19
2022-10-17T00:44:57.051Z,102519.66
2022-10-17T00:49:56.189Z,102520.09
2022-10-17T00:55:03.936Z,102521.75
2022-10-17T01:00:08.227Z,102521.75
2022-10-17T01:05:08.234Z,102531.72
2022-10-17T01:10:10.320Z,102526.59
2022-10-17T01:15:15.391Z,102531.03
2022-10-17T01:20:55.642Z,102537.19
2022-10-17T01:26:06.162Z,102537.38
2022-10-17T01:31:11.142Z,102533.97
2022-10-17T01:36:13.986Z,102530.34
2022-10-17T01:41:18.403Z,102540.00
2022-10-17T01:46:24.534Z,102542.47
2022-10-17T01:51:28.225Z,102545.03
2022-10-17T01:56:31.482Z,102547.69
2022-10-17T02:01:32.877Z,102549.41
2022-10-17T02:06:36.275Z,102548.66
2022-10-17T02:11:41.390Z,102550.34
2022-10-17T02:16:49.462Z,102548.59
2022-10-17T02:21:55.191Z,102558.22
2022-10-17T02:27:03.291Z,102561.72
2022-10-17T02:32:07.013Z,102567.09
2022-10-17T02:37:08.372Z,102572.44
2022-10-17T02:42:10.688Z,102576.13
2022-10-17T02:47:20.125Z,102578.88
2022-10-17T02:52:27.958Z,102583.38
2022-10-17T02:57:32.234Z,102583.56
2022-10-17T03:02:40.399Z,102597.78
2022-10-17T03:07:41.117Z,102590.91
2022-10-17T03:12:40.431Z,102596.22
2022-10-17T03:17:42.339Z,102596.34
2022-10-17T03:22:42.076Z,102593.81
2022-10-17T03:27:42.173Z,102599.25
2022-10-17T03:32:42.805Z,102600.94
2022-10-17T03:37:41.720Z,102597.81
2022-10-17T03:42:40.809Z,102599.50
2022-10-17T03:47:40.117Z,102600.34
2022-10-17T03:52:40.733Z,102607.25
2022-10-17T03:57:45.401Z,102616.84
2022-10-17T04:02:48.478Z,102628.84
2022-10-17T04:07:54.241Z,102630.78
2022-10-17T04:13:03.243Z,102639.84
2022-10-17T04:18:02.537Z,102650.44
2022-10-17T04:23:03.232Z,102647.81
2022-10-17T04:28:02.059Z,102655.72
2022-10-17T04:33:01.119Z,102653.91
2022-10-17T04:38:02.680Z,102655.69
2022-10-17T04:43:01.607Z,102657.47
2022-10-17T04:48:07.136Z,102660.03
2022-10-17T04:53:07.693Z,102661.69
2022-10-17T04:58:06.972Z,102666.91
2022-10-17T05:03:06.149Z,102672.94
2022-10-17T05:08:05.316Z,102686.09
2022-10-17T05:13:10.282Z,102685.44
2022-10-17T05:18:09.204Z,102687.41
2022-10-17T05:23:24.410Z,102685.91
2022-10-17T05:28:45.274Z,102692.44
2022-10-17T05:34:18.688Z,102697.69
2022-10-17T05:39:19.831Z,102706.44
2022-10-17T05:44:21.898Z,102713.16
2022-10-17T05:49:33.845Z,102726.84
2022-10-17T06:00:18.590Z,102739.47
2022-10-17T06:05:25.900Z,102752.56
2022-10-17T06:10:25.120Z,102756.75
2022-10-17T06:15:26.739Z,102754.00
2022-10-17T06:20:33.888Z,102754.78
2022-10-17T06:25:34.216Z,102765.09
2022-10-17T06:30:34.512Z,102767.56
2022-10-17T06:35:33.577Z,102778.09
2022-10-17T06:40:32.527Z,102774.59
2022-10-17T06:45:32.138Z,102783.47
2022-10-17T06:51:02.047Z,102790.22
2022-10-17T06:56:03.178Z,102783.84
2022-10-17T07:01:25.368Z,102784.41
2022-10-17T07:06:29.784Z,102792.84
2022-10-17T07:11:31.984Z,102787.25
2022-10-17T07:16:33.212Z,102785.94
2022-10-17T07:22:02.579Z,102784.69
2022-10-17T07:27:03.141Z,102776.38
2022-10-17T07:32:04.084Z,102782.06
2022-10-17T07:37:07.008Z,102784.47
2022-10-17T07:42:07.578Z,102782.25
2022-10-17T07:47:07.163Z,102783.53
2022-10-17T07:52:14.472Z,102788.34
2022-10-17T07:57:13.423Z,102791.34
2022-10-17T08:02:19.959Z,102793.09
2022-10-17T08:07:25.395Z,102786.53
2022-10-17T08:12:27.627Z,102774.03
2022-10-17T08:17:27.285Z,102772.84
2022-10-17T08:22:28.165Z,102786.97
2022-10-17T08:27:30.484Z,102779.94
2022-10-17T08:32:30.705Z,102787.50
2022-10-17T08:37:32.791Z,102777.16
2022-10-17T08:42:59.393Z,102785.28
2022-10-17T08:48:00.777Z,102779.16
2022-10-17T08:53:07.429Z,102777.56
2022-10-17T08:58:14.618Z,102773.47
2022-10-17T09:03:24.413Z,102771.69
2022-10-17T09:08:33.652Z,102767.31
2022-10-17T09:13:45.043Z,102771.00
2022-10-17T09:18:47.732Z,102769.38
2022-10-17T09:23:59.446Z,102765.16
2022-10-17T09:29:18.618Z,102759.34
2022-10-17T09:34:17.599Z,102757.28
2022-10-17T09:39:20.848Z,102752.44
2022-10-17T09:44:22.585Z,102738.56
2022-10-17T09:49:28.535Z,102739.75
2022-10-17T09:54:41.468Z,102739.00
2022-10-17T09:59:42.046Z,102731.84
2022-10-17T10:05:09.023Z,102727.09
2022-10-17T10:10:27.660Z,102723.03
2022-10-17T10:15:37.295Z,102715.75
2022-10-17T10:20:38.038Z,102715.19
2022-10-17T10:25:38.148Z,102708.38
2022-10-17T10:30:53.717Z,102701.22
2022-10-17T10:36:02.237Z,102696.59
2022-10-17T10:41:10.075Z,102690.13
2022-10-17T10:46:26.838Z,102685.31
2022-10-17T10:51:31.493Z,102675.88
2022-10-17T10:56:38.744Z,102667.88
2022-10-17T11:01:48.656Z,102652.34
2022-10-17T11:06:49.050Z,102652.59
2022-10-17T11:11:55.909Z,102650.19
2022-10-17T11:17:04.379Z,102645.09
2022-10-17T11:22:12.975Z,102635.72
2022-10-17T11:27:13.160Z,102627.31
2022-10-17T11:32:16.984Z,102624.63
2022-10-17T11:37:20.811Z,102621.59
2022-10-17T11:42:27.533Z,102620.69
2022-10-17T11:47:35.805Z,102617.41
2022-10-17T11:52:56.977Z,102610.56
2022-10-17T11:58:24.536Z,102600.72
2022-10-17T12:03:36.031Z,102602.09
2022-10-17T12:08:45.900Z,102603.78
2022-10-17T12:13:52.078Z,102598.16
2022-10-17T12:19:31.356Z,102591.94
2022-10-17T12:24:44.870Z,102595.31
2022-10-17T12:29:45.320Z,102595.25
2022-10-17T12:34:53.218Z,102599.06
2022-10-17T12:40:03.287Z,102594.00
2022-10-17T12:45:46.358Z,102573.38
2022-10-17T12:56:37.227Z,102572.75
2022-10-17T13:01:41.157Z,102577.44
2022-10-17T13:06:46.588Z,102568.41
2022-10-17T13:11:45.616Z,102567.81
2022-10-17T13:16:54.504Z,102571.66
2022-10-17T13:21:56.333Z,102575.34
2022-10-17T13:27:27.588Z,102564.31
2022-10-17T13:32:47.902Z,102571.25
2022-10-17T13:37:53.956Z,102580.28
2022-10-17T13:43:01.732Z,102574.38
2022-10-17T13:48:06.923Z,102585.41
2022-10-17T13:53:15.880Z,102580.91
2022-10-17T13:58:18.727Z,102581.28
2022-10-17T14:03:20.422Z,102588.59
2022-10-17T14:08:23.315Z,102588.38
2022-10-17T14:13:25.936Z,102581.06
2022-10-17T14:18:35.787Z,102581.94
2022-10-17T14:23:39.118Z,102583.06
2022-10-17T14:28:38.997Z,102579.09
2022-10-17T14:33:44.061Z,102584.75
2022-10-17T14:38:53.651Z,102582.88
2022-10-17T14:44:05.004Z,102578.63
2022-10-17T14:49:08.760Z,102589.34
2022-10-17T14:54:21.993Z,102594.63
2022-10-17T14:59:52.731Z,102592.47
2022-10-17T15:04:44.466Z,102591.22
2022-10-17T15:09:43.732Z,102606.34
2022-10-17T15:14:43.406Z,102600.50
2022-10-17T15:19:46.506Z,102607.63
2022-10-17T15:24:46.309Z,102604.88
2022-10-17T15:29:45.978Z,102613.69
2022-10-17T15:34:46.709Z,102618.84
2022-10-17T15:39:48.184Z,102618.06
2022-10-17T15:44:50.064Z,102631.50
2022-10-17T15:49:50.545Z,102628.75
2022-10-17T15:54:49.580Z,102641.91
2022-10-17T15:59:50.463Z,102649.50
2022-10-17T16:04:57.953Z,102648.25
2022-10-17T16:09:57.113Z,102658.13
2022-10-17T16:14:57.858Z,102660.03
2022-10-17T16:19:58.291Z,102667.63
2022-10-17T16:24:59.370Z,102669.03
2022-10-17T16:29:58.459Z,102665.50
2022-10-17T16:35:03.056Z,102672.94
2022-10-17T16:40:02.075Z,102668.28
2022-10-17T16:45:01.083Z,102672.16
2022-10-17T16:50:01.340Z,102681.28
2022-10-17T16:55:04.458Z,102679.31
2022-10-17T17:00:03.512Z,102685.59
2022-10-17T17:05:03.721Z,102678.63
2022-10-17T17:10:02.782Z,102688.34
2022-10-17T17:15:01.693Z,102693.75
2022-10-17T17:20:00.617Z,102685.88
2022-10-17T17:25:01.036Z,102693.91
2022-10-17T17:30:00.016Z,102691.47
2022-10-17T17:34:58.952Z,102686.13
2022-10-17T17:40:00.710Z,102680.66
2022-10-17T17:44:59.535Z,102685.88
2022-10-17T17:49:58.397Z,102689.22
2022-10-17T17:54:57.281Z,102693.28
2022-10-17T17:59:57.891Z,102693.94
2022-10-17T18:04:56.755Z,102705.84
2022-10-17T18:09:57.138Z,102710.19
2022-10-17T18:15:01.133Z,102711.78
2022-10-17T18:20:02.747Z,102716.16
2022-10-17T18:25:02.179Z,102711.59
2022-10-17T18:30:14.832Z,102713.31
2022-10-17T18:35:13.942Z,102721.13
2022-10-17T18:40:13.639Z,102718.34
2022-10-17T18:45:14.390Z,102717.13
2022-10-17T18:50:13.220Z,102721.34
2022-10-17T18:55:12.039Z,102713.75
2022-10-17T19:00:13.860Z,102727.56
2022-10-17T19:05:12.813Z,102727.09
2022-10-17T19:10:11.673Z,102733.22
2022-10-17T19:15:10.934Z,102738.22
2022-10-17T19:20:12.142Z,102734.25
2022-10-17T19:25:11.301Z,102738.19
2022-10-17T19:30:16.542Z,102739.38
2022-10-17T19:35:19.525Z,102741.47
2022-10-17T19:40:21.624Z,102736.69
2022-10-17T19:45:29.027Z,102737.13
2022-10-17T19:50:30.120Z,102736.59
2022-10-17T19:55:29.198Z,102740.59
2022-10-17T20:00:28.463Z,102744.34
2022-10-17T20:05:28.253Z,102746.78
2022-10-17T20:10:30.290Z,102743.81
2022-10-17T20:15:29.305Z,102748.50
2022-10-17T20:20:29.421Z,102745.16
2022-10-17T20:25:29.724Z,102740.94
2022-10-17T20:30:28.743Z,102739.59
2022-10-17T20:35:27.601Z,102746.19
2022-10-17T20:40:35.361Z,102737.78
2022-10-17T20:45:51.582Z,102734.84
2022-10-17T20:50:51.717Z,102734.25
2022-10-17T20:56:03.213Z,102730.09
2022-10-17T21:01:08.514Z,102720.63
2022-10-17T21:06:10.257Z,102729.66
2022-10-17T21:11:14.116Z,102723.91
2022-10-17T21:16:17.322Z,102734.09
2022-10-17T21:21:18.386Z,102726.63
2022-10-17T21:26:18.658Z,102739.16
2022-10-17T21:31:22.376Z,102731.47
2022-10-17T21:36:24.182Z,102727.50
2022-10-17T21:41:24.974Z,102735.31
2022-10-17T21:46:26.073Z,102726.81
2022-10-17T21:51:26.460Z,102725.28
2022-10-17T21:56:28.310Z,102721.91
2022-10-17T22:01:30.074Z,102724.72
2022-10-17T22:06:40.106Z,102724.81
2022-10-17T22:11:40.117Z,102737.31
2022-10-17T22:16:41.217Z,102729.56
2022-10-17T22:21:47.847Z,102718.34
2022-10-17T22:26:47.449Z,102707.75
2022-10-17T22:31:47.740Z,102715.63
2022-10-17T22:36:47.883Z,102709.50
2022-10-17T22:41:46.933Z,102713.13
2022-10-17T22:46:47.123Z,102712.44
2022-10-17T22:51:45.956Z,102720.59
2022-10-17T22:56:45.483Z,102706.75
2022-10-17T23:01:45.267Z,102700.63
2022-10-17T23:06:46.593Z,102701.69
2022-10-17T23:11:45.656Z,102709.69
2022-10-17T23:16:44.488Z,102719.72
2022-10-17T23:21:43.273Z,102716.41
2022-10-17T23:26:47.640Z,102713.97
2022-10-17T23:31:48.515Z,102711.38
2022-10-17T23:36:50.541Z,102726.47
2022-10-17T23:41:50.730Z,102701.16
2022-10-17T23:46:49.565Z,102702.97
2022-10-17T23:51:48.601Z,102712.72
2022-10-17T23:56:47.447Z,102718.91
